createdAt,value
2023-04-10T00:12:11.582Z,1910.19294
2023-04-10T00:27:13.322Z,1939.21902
2023-04-10T00:42:15.021Z,1964.80988
2023-04-10T00:57:16.767Z,1884.66998
2023-04-10T01:12:18.555Z,1768.97739
2023-04-10T01:27:20.283Z,1607.67896
2023-04-10T01:42:22.037Z,1495.53623
2023-04-10T01:57:23.793Z,1377.18448
2023-04-10T02:12:25.546Z,1278.62646
2023-04-10T02:27:27.318Z,1127.94663
2023-04-10T02:42:29.055Z,1015.92165
2023-04-10T02:57:30.757Z,976.67688
2023-04-10T03:12:32.448Z,994.80377
2023-04-10T03:27:34.192Z,1018.23758
2023-04-10T03:42:35.960Z,1066.87948
2023-04-10T03:57:37.720Z,1115.73739
2023-04-10T04:12:39.434Z,1102.88116
2023-04-10T04:27:41.162Z,1126.05092
2023-04-10T04:42:42.899Z,1153.18467
2023-04-10T04:57:44.644Z,1115.73739
2023-04-10T05:12:46.406Z,1095.6669
2023-04-10T05:27:48.202Z,1134.63217
2023-04-10T05:42:50.104Z,1199.6424
2023-04-10T05:57:51.848Z,1257.03615
2023-04-10T06:12:53.622Z,1277.40756
2023-04-10T06:27:55.381Z,1260.58376
2023-04-10T06:42:57.164Z,1266.54115
2023-04-10T06:57:58.968Z,1267.73939
2023-04-10T07:13:00.782Z,1300.97138
2023-04-10T07:28:02.547Z,1360.4066
2023-04-10T07:43:04.351Z,1374.35949
2023-04-10T07:58:06.122Z,1385.72957
2023-04-10T08:13:07.910Z,1390.04201
2023-04-10T08:28:09.665Z,1437.76875
2023-04-10T08:43:11.482Z,1483.94293
2023-04-10T08:58:13.196Z,1503.08518
2023-04-10T09:13:14.939Z,1534.93749
2023-04-10T09:28:16.668Z,1567.25195
2023-04-10T09:43:18.484Z,1588.61934
2023-04-10T09:58:20.240Z,1578.32794
2023-04-10T10:13:21.942Z,1624.24292
2023-04-10T10:28:23.636Z,1604.79091
2023-04-10T10:43:25.396Z,1631.163
2023-04-10T10:58:27.173Z,1622.27652
2023-04-10T11:13:28.948Z,1618.35798
2023-04-10T11:28:30.673Z,1588.61934
2023-04-10T11:43:32.359Z,1582.0548
2023-04-10T11:58:34.094Z,1568.16901
2023-04-10T12:13:35.830Z,1589.56158
2023-04-10T12:28:37.556Z,1600.00049
2023-04-10T12:43:39.292Z,1642.15736
2023-04-10T12:58:41.041Z,1683.41758
2023-04-10T13:13:42.767Z,1603.83053
2023-04-10T13:28:44.462Z,1602.87131
2023-04-10T13:43:46.233Z,1590.50494
2023-04-10T13:58:47.963Z,1577.39896
2023-04-10T14:13:49.674Z,1587.67822
2023-04-10T14:28:51.489Z,1580.18917
2023-04-10T14:43:53.443Z,1570.92664
2023-04-10T14:58:55.256Z,1575.54429
2023-04-10T15:13:56.997Z,1529.68086
2023-04-10T15:28:58.730Z,1509.0095
2023-04-10T15:44:00.435Z,1422.50582
2023-04-10T15:59:02.142Z,1380.02111
2023-04-10T16:14:03.897Z,1368.74413
2023-04-10T16:29:05.671Z,1342.68588
2023-04-10T16:44:07.426Z,1340.00051
2023-04-10T16:59:09.136Z,1337.32586
2023-04-10T17:14:10.856Z,1344.03261
2023-04-10T17:29:12.609Z,1364.56263
2023-04-10T17:44:14.380Z,1303.50245
2023-04-10T17:59:16.139Z,1344.03261
2023-04-10T18:14:17.973Z,1371.54606
2023-04-10T18:29:19.731Z,1397.28936
2023-04-10T18:44:21.490Z,1413.50262
2023-04-10T18:59:23.239Z,1447.08475
2023-04-10T19:14:25.016Z,1479.02921
2023-04-10T19:29:26.749Z,1502.24264
2023-04-10T19:44:28.437Z,1514.98071
2023-04-10T19:59:30.155Z,1534.93749
2023-04-10T20:14:31.942Z,1552.72355
2023-04-10T20:29:33.656Z,1560.86246
2023-04-10T20:44:35.425Z,1582.0548
2023-04-10T20:59:37.131Z,1511.56282
2023-04-10T21:14:38.912Z,1397.28936
2023-04-10T21:29:40.699Z,1325.42089
2023-04-10T21:44:42.421Z,1148.24386
2023-04-10T21:59:44.221Z,887.41772
2023-04-10T22:14:46.032Z,815.58175
2023-04-10T22:29:56.534Z,900.53813
2023-04-10T22:45:04.282Z,965.41837
2023-04-10T23:00:06.030Z,1006.76233
2023-04-10T23:15:07.809Z,1028.39651
2023-04-10T23:30:09.586Z,1050.15724
2023-04-10T23:45:11.303Z,1067.72959
